CCM26G LFKJ-EBCI
Flight info
| Callsign | CCM26G |
|---|---|
| Flight time | N/A |
| Altitude | 34000 |
| Route | LONSU M622 PIGOS DCT BARSO DCT IRMAR DCT KINES DCT VANAS DCT MOBLO DCT UBIMA DCT GILIR DCT PENDU DCT IXILU DCT EPL/N0452F320 DCT ROUSY/N0452F310 M624 DIK/N0452F320 Y37 BATTY |
| Aircraft | A320/M-SDE3FGHIRWY/LB1 |
Departure
| Time | N/A |
|---|---|
| Airport | Ajaccio Napoléon Bonaparte airport (LFKJ) |
Arrival
| Time | 2026-05-06 17:20 |
|---|---|
| Airport | Brussels South Charleroi Airport (EBCI) |
| Time | Latitude | Longitude | Altitude | Speed | Heading |
|---|---|---|---|---|---|
| 2026-05-06 15:40 | 42.53753 | 8.16940 | 23116 ft | 439 kts | 329° |
| 2026-05-06 15:40 | 42.56556 | 8.15236 | 23524 ft | 442 kts | 329° |
| 2026-05-06 15:40 | 42.59372 | 8.13525 | 23854 ft | 444 kts | 329° |
| 2026-05-06 15:40 | 42.62172 | 8.11825 | 24183 ft | 447 kts | 329° |
| 2026-05-06 15:41 | 42.65028 | 8.10088 | 24515 ft | 449 kts | 329° |
| 2026-05-06 15:41 | 42.67895 | 8.08344 | 24837 ft | 452 kts | 329° |
| 2026-05-06 15:41 | 42.70776 | 8.06593 | 25154 ft | 454 kts | 329° |
| 2026-05-06 15:41 | 42.73643 | 8.04851 | 25462 ft | 456 kts | 329° |
| 2026-05-06 15:42 | 42.76567 | 8.03076 | 25771 ft | 459 kts | 329° |
| 2026-05-06 15:42 | 42.79463 | 8.01222 | 26054 ft | 460 kts | 326° |
| 2026-05-06 15:42 | 42.82299 | 7.99207 | 26344 ft | 460 kts | 324° |
| 2026-05-06 15:42 | 42.85065 | 7.97092 | 26622 ft | 461 kts | 323° |
| 2026-05-06 15:43 | 42.87849 | 7.94881 | 26924 ft | 463 kts | 322° |
| 2026-05-06 15:43 | 42.90642 | 7.92649 | 27191 ft | 465 kts | 322° |
| 2026-05-06 15:43 | 42.93417 | 7.90454 | 27447 ft | 467 kts | 322° |
| 2026-05-06 15:43 | 42.96250 | 7.88247 | 27723 ft | 470 kts | 323° |
| 2026-05-06 15:44 | 42.99118 | 7.86051 | 27954 ft | 473 kts | 323° |
| 2026-05-06 15:44 | 43.02011 | 7.83854 | 28179 ft | 475 kts | 323° |
| 2026-05-06 15:44 | 43.04905 | 7.81662 | 28413 ft | 477 kts | 323° |
| 2026-05-06 15:44 | 43.07782 | 7.79483 | 28673 ft | 477 kts | 323° |
| 2026-05-06 15:45 | 43.10689 | 7.77272 | 28998 ft | 476 kts | 323° |
| 2026-05-06 15:45 | 43.13584 | 7.75051 | 29324 ft | 476 kts | 322° |
| 2026-05-06 15:45 | 43.16466 | 7.72821 | 29648 ft | 475 kts | 322° |
| 2026-05-06 15:45 | 43.19343 | 7.70584 | 29979 ft | 475 kts | 322° |
| 2026-05-06 15:46 | 43.22193 | 7.68366 | 30235 ft | 475 kts | 322° |
| 2026-05-06 15:46 | 43.25070 | 7.66125 | 30511 ft | 475 kts | 322° |
| 2026-05-06 15:46 | 43.27941 | 7.63894 | 30790 ft | 474 kts | 322° |
| 2026-05-06 15:46 | 43.30815 | 7.61662 | 31087 ft | 473 kts | 322° |
| 2026-05-06 15:47 | 43.33676 | 7.59442 | 31413 ft | 472 kts | 322° |
| 2026-05-06 15:47 | 43.36535 | 7.57221 | 31708 ft | 470 kts | 322° |
| 2026-05-06 15:47 | 43.39347 | 7.55031 | 32074 ft | 468 kts | 321° |
| 2026-05-06 15:47 | 43.42179 | 7.52819 | 32381 ft | 467 kts | 321° |
| 2026-05-06 15:48 | 43.45002 | 7.50612 | 32669 ft | 466 kts | 321° |
| 2026-05-06 15:48 | 43.47830 | 7.48401 | 32956 ft | 466 kts | 321° |
| 2026-05-06 15:48 | 43.50645 | 7.46201 | 33242 ft | 465 kts | 321° |
| 2026-05-06 15:48 | 43.53423 | 7.44028 | 33520 ft | 464 kts | 321° |
| 2026-05-06 15:49 | 43.56237 | 7.41826 | 33776 ft | 464 kts | 321° |
| 2026-05-06 15:49 | 43.59054 | 7.39614 | 33842 ft | 465 kts | 321° |
| 2026-05-06 15:49 | 43.64649 | 7.35100 | 33838 ft | 464 kts | 319° |
| 2026-05-06 15:50 | 43.69993 | 7.30241 | 33839 ft | 461 kts | 316° |
| 2026-05-06 15:50 | 43.75289 | 7.25210 | 33837 ft | 461 kts | 316° |
| 2026-05-06 15:51 | 43.80626 | 7.20230 | 33849 ft | 462 kts | 317° |
| 2026-05-06 15:51 | 43.85970 | 7.15326 | 33844 ft | 463 kts | 317° |
| 2026-05-06 15:52 | 43.91347 | 7.10396 | 33847 ft | 463 kts | 317° |
| 2026-05-06 15:52 | 43.96681 | 7.05470 | 33845 ft | 463 kts | 317° |
| 2026-05-06 15:53 | 44.02054 | 7.00490 | 33872 ft | 463 kts | 317° |
| 2026-05-06 15:53 | 44.07390 | 6.95533 | 33865 ft | 462 kts | 317° |
| 2026-05-06 15:54 | 44.12931 | 6.90819 | 33868 ft | 474 kts | 327° |
| 2026-05-06 15:54 | 44.16015 | 6.89221 | 33863 ft | 485 kts | 337° |
| 2026-05-06 15:54 | 44.19362 | 6.88274 | 33857 ft | 495 kts | 346° |
| 2026-05-06 15:55 | 44.26228 | 6.87257 | 33872 ft | 495 kts | 347° |
| 2026-05-06 15:55 | 44.33050 | 6.86225 | 33872 ft | 495 kts | 347° |
| 2026-05-06 15:56 | 44.39921 | 6.85175 | 33882 ft | 495 kts | 347° |
| 2026-05-06 15:56 | 44.46747 | 6.84139 | 33951 ft | 495 kts | 348° |
| 2026-05-06 15:57 | 44.53581 | 6.83095 | 33908 ft | 492 kts | 347° |
| 2026-05-06 15:57 | 44.60386 | 6.82047 | 33900 ft | 491 kts | 347° |
| 2026-05-06 15:58 | 44.67167 | 6.81000 | 33900 ft | 491 kts | 347° |
| 2026-05-06 15:58 | 44.73966 | 6.79963 | 33889 ft | 491 kts | 347° |
| 2026-05-06 15:59 | 44.80790 | 6.78936 | 33909 ft | 492 kts | 349° |
| 2026-05-06 15:59 | 44.87630 | 6.78316 | 33903 ft | 493 kts | 352° |
| 2026-05-06 16:00 | 44.94465 | 6.78017 | 33903 ft | 494 kts | 353° |
| 2026-05-06 16:00 | 45.01338 | 6.77687 | 34229 ft | 493 kts | 353° |
| 2026-05-06 16:01 | 45.04777 | 6.77476 | 34459 ft | 492 kts | 352° |
| 2026-05-06 16:01 | 45.08189 | 6.77240 | 34697 ft | 491 kts | 352° |
| 2026-05-06 16:01 | 45.11565 | 6.76995 | 34931 ft | 490 kts | 352° |
| 2026-05-06 16:01 | 45.14982 | 6.76746 | 35176 ft | 490 kts | 352° |
| 2026-05-06 16:02 | 45.18391 | 6.76501 | 35377 ft | 489 kts | 352° |
| 2026-05-06 16:02 | 45.21751 | 6.76268 | 35590 ft | 489 kts | 353° |
| 2026-05-06 16:02 | 45.25158 | 6.76043 | 35779 ft | 488 kts | 353° |
| 2026-05-06 16:02 | 45.28560 | 6.75823 | 35917 ft | 488 kts | 353° |
| 2026-05-06 16:03 | 45.35348 | 6.75381 | 35944 ft | 487 kts | 353° |
| 2026-05-06 16:03 | 45.42092 | 6.74936 | 35944 ft | 487 kts | 353° |
| 2026-05-06 16:04 | 45.48875 | 6.74476 | 35945 ft | 487 kts | 353° |
| 2026-05-06 16:04 | 45.55630 | 6.74010 | 35947 ft | 487 kts | 353° |
| 2026-05-06 16:05 | 45.62405 | 6.73548 | 35952 ft | 487 kts | 353° |
| 2026-05-06 16:05 | 45.69179 | 6.73084 | 35947 ft | 487 kts | 353° |
| 2026-05-06 16:06 | 45.75925 | 6.72614 | 35949 ft | 488 kts | 353° |
| 2026-05-06 16:06 | 45.82686 | 6.72144 | 35962 ft | 488 kts | 353° |
| 2026-05-06 16:07 | 45.89494 | 6.71682 | 35955 ft | 488 kts | 353° |
| 2026-05-06 16:07 | 45.96288 | 6.71223 | 35964 ft | 488 kts | 353° |
| 2026-05-06 16:08 | 46.03030 | 6.70771 | 35969 ft | 488 kts | 354° |
| 2026-05-06 16:08 | 46.09789 | 6.70301 | 35962 ft | 487 kts | 352° |
| 2026-05-06 16:09 | 46.16342 | 6.68325 | 35954 ft | 477 kts | 336° |
| 2026-05-06 16:09 | 46.22634 | 6.65252 | 35955 ft | 478 kts | 337° |
| 2026-05-06 16:10 | 46.28941 | 6.62193 | 35943 ft | 478 kts | 337° |
| 2026-05-06 16:10 | 46.35213 | 6.59140 | 35938 ft | 478 kts | 337° |
| 2026-05-06 16:11 | 46.41523 | 6.56057 | 35938 ft | 478 kts | 337° |
| 2026-05-06 16:11 | 46.47835 | 6.52969 | 35932 ft | 478 kts | 337° |
| 2026-05-06 16:12 | 46.53091 | 6.50380 | 35934 ft | 479 kts | 337° |
| 2026-05-06 16:12 | 46.60438 | 6.46756 | 35948 ft | 479 kts | 338° |
| 2026-05-06 16:13 | 46.66721 | 6.43662 | 35941 ft | 477 kts | 338° |
| 2026-05-06 16:13 | 46.71959 | 6.41071 | 35941 ft | 477 kts | 338° |
| 2026-05-06 16:14 | 46.78247 | 6.37955 | 35938 ft | 476 kts | 338° |
| 2026-05-06 16:14 | 46.84524 | 6.34826 | 35932 ft | 476 kts | 338° |
| 2026-05-06 16:15 | 46.90766 | 6.31715 | 35925 ft | 476 kts | 338° |
| 2026-05-06 16:15 | 46.97048 | 6.28580 | 35919 ft | 476 kts | 338° |
| 2026-05-06 16:16 | 47.03286 | 6.25453 | 35927 ft | 476 kts | 338° |
| 2026-05-06 16:16 | 47.09373 | 6.21746 | 35918 ft | 472 kts | 330° |
| 2026-05-06 16:17 | 47.15276 | 6.17490 | 35927 ft | 472 kts | 330° |
| 2026-05-06 16:17 | 47.21129 | 6.13246 | 35912 ft | 471 kts | 330° |
| 2026-05-06 16:18 | 47.27037 | 6.08968 | 35918 ft | 471 kts | 331° |
| 2026-05-06 16:18 | 47.33017 | 6.04965 | 35904 ft | 474 kts | 340° |
| 2026-05-06 16:19 | 47.39510 | 6.03364 | 35910 ft | 479 kts | 358° |
| 2026-05-06 16:19 | 47.46188 | 6.03531 | 35905 ft | 479 kts | 359° |
| 2026-05-06 16:20 | 47.52825 | 6.03674 | 35899 ft | 479 kts | 359° |
| 2026-05-06 16:20 | 47.59492 | 6.03806 | 35898 ft | 479 kts | 359° |
| 2026-05-06 16:21 | 47.66166 | 6.03951 | 35903 ft | 479 kts | 359° |
| 2026-05-06 16:21 | 47.72796 | 6.04106 | 35902 ft | 479 kts | 359° |
| 2026-05-06 16:22 | 47.79482 | 6.04287 | 35906 ft | 479 kts | 360° |
| 2026-05-06 16:22 | 47.86109 | 6.04498 | 35903 ft | 479 kts | 360° |
| 2026-05-06 16:23 | 47.92783 | 6.04718 | 35900 ft | 478 kts | 360° |
| 2026-05-06 16:23 | 47.99447 | 6.04930 | 35891 ft | 478 kts | 360° |
| 2026-05-06 16:24 | 48.06102 | 6.05134 | 35881 ft | 478 kts | 360° |
| 2026-05-06 16:24 | 48.12705 | 6.05341 | 35885 ft | 478 kts | 360° |
| 2026-05-06 16:25 | 48.19349 | 6.05542 | 35878 ft | 477 kts | 360° |
| 2026-05-06 16:25 | 48.26008 | 6.05754 | 35876 ft | 477 kts | 360° |
| 2026-05-06 16:26 | 48.32632 | 6.05965 | 35881 ft | 477 kts | 0° |
| 2026-05-06 16:26 | 48.39274 | 6.06242 | 35881 ft | 477 kts | 1° |
| 2026-05-06 16:27 | 48.45888 | 6.06591 | 35880 ft | 477 kts | 1° |
| 2026-05-06 16:27 | 48.52529 | 6.06932 | 35880 ft | 476 kts | 1° |
| 2026-05-06 16:28 | 48.59126 | 6.07236 | 35893 ft | 476 kts | 1° |
| 2026-05-06 16:28 | 48.65760 | 6.07534 | 35888 ft | 476 kts | 1° |
| 2026-05-06 16:29 | 48.72379 | 6.07845 | 35884 ft | 475 kts | 1° |
| 2026-05-06 16:29 | 48.78955 | 6.08164 | 35881 ft | 475 kts | 1° |
| 2026-05-06 16:30 | 48.84478 | 6.08433 | 35879 ft | 475 kts | 1° |
| 2026-05-06 16:30 | 48.92158 | 6.08813 | 35884 ft | 475 kts | 1° |
| 2026-05-06 16:31 | 48.98777 | 6.09131 | 35865 ft | 478 kts | 1° |
| 2026-05-06 16:31 | 49.05460 | 6.09445 | 35869 ft | 480 kts | 1° |
| 2026-05-06 16:32 | 49.12106 | 6.09764 | 35864 ft | 480 kts | 1° |
| 2026-05-06 16:32 | 49.18789 | 6.10089 | 35864 ft | 480 kts | 1° |
| 2026-05-06 16:33 | 49.25473 | 6.10409 | 35854 ft | 480 kts | 1° |
| 2026-05-06 16:34 | 49.35495 | 6.10904 | 35843 ft | 480 kts | 1° |
| 2026-05-06 16:34 | 49.42137 | 6.11220 | 35840 ft | 480 kts | 0° |
| 2026-05-06 16:35 | 49.48812 | 6.11554 | 35829 ft | 480 kts | 0° |
| 2026-05-06 16:35 | 49.55496 | 6.11832 | 35828 ft | 480 kts | 0° |
| 2026-05-06 16:36 | 49.62179 | 6.12062 | 35827 ft | 481 kts | 360° |
| 2026-05-06 16:36 | 49.68880 | 6.12306 | 35829 ft | 481 kts | 360° |
| 2026-05-06 16:37 | 49.75591 | 6.12552 | 35504 ft | 482 kts | 360° |
| 2026-05-06 16:37 | 49.78954 | 6.12682 | 35257 ft | 482 kts | 360° |
| 2026-05-06 16:37 | 49.82267 | 6.12815 | 35021 ft | 482 kts | 359° |
| 2026-05-06 16:37 | 49.85615 | 6.12797 | 34778 ft | 480 kts | 353° |
| 2026-05-06 16:38 | 49.88910 | 6.12025 | 34533 ft | 476 kts | 344° |
| 2026-05-06 16:38 | 49.92153 | 6.10883 | 34299 ft | 477 kts | 344° |
| 2026-05-06 16:38 | 49.95392 | 6.09737 | 34067 ft | 477 kts | 344° |
| 2026-05-06 16:38 | 49.98614 | 6.08592 | 33827 ft | 478 kts | 344° |
| 2026-05-06 16:39 | 50.01853 | 6.07442 | 33551 ft | 478 kts | 344° |
| 2026-05-06 16:39 | 50.05107 | 6.06291 | 33273 ft | 478 kts | 344° |
| 2026-05-06 16:39 | 50.08352 | 6.05146 | 33003 ft | 477 kts | 344° |
| 2026-05-06 16:39 | 50.11597 | 6.04003 | 32749 ft | 476 kts | 344° |
| 2026-05-06 16:40 | 50.14828 | 6.02863 | 32461 ft | 476 kts | 344° |
| 2026-05-06 16:40 | 50.18024 | 6.01729 | 32202 ft | 476 kts | 344° |
| 2026-05-06 16:40 | 50.21256 | 6.00575 | 31939 ft | 476 kts | 344° |
| 2026-05-06 16:40 | 50.24488 | 5.99415 | 31678 ft | 476 kts | 344° |
| 2026-05-06 16:41 | 50.27713 | 5.98254 | 31238 ft | 475 kts | 344° |
| 2026-05-06 16:41 | 50.30831 | 5.96659 | 29556 ft | 473 kts | 332° |
| 2026-05-06 16:41 | 50.33595 | 5.93862 | 27435 ft | 474 kts | 316° |
| 2026-05-06 16:41 | 50.35765 | 5.89998 | 25519 ft | 472 kts | 301° |
| 2026-05-06 16:42 | 50.37515 | 5.85677 | 23846 ft | 468 kts | 301° |
| 2026-05-06 16:42 | 50.39239 | 5.81466 | 22239 ft | 462 kts | 301° |
| 2026-05-06 16:42 | 50.40975 | 5.77284 | 20771 ft | 453 kts | 302° |
| 2026-05-06 16:42 | 50.42685 | 5.73188 | 19407 ft | 444 kts | 302° |
| 2026-05-06 16:43 | 50.44361 | 5.69170 | 18125 ft | 436 kts | 302° |
| 2026-05-06 16:43 | 50.46003 | 5.65210 | 16740 ft | 427 kts | 302° |
| 2026-05-06 16:43 | 50.47601 | 5.61329 | 15659 ft | 416 kts | 302° |
| 2026-05-06 16:43 | 50.49130 | 5.57597 | 14766 ft | 399 kts | 301° |
| 2026-05-06 16:44 | 50.50638 | 5.53912 | 13332 ft | 400 kts | 303° |
| 2026-05-06 16:44 | 50.52121 | 5.50289 | 12263 ft | 390 kts | 303° |
| 2026-05-06 16:44 | 50.53532 | 5.46825 | 11978 ft | 361 kts | 304° |
| 2026-05-06 16:44 | 50.54830 | 5.43632 | 11834 ft | 332 kts | 304° |
| 2026-05-06 16:45 | 50.56029 | 5.40679 | 11645 ft | 309 kts | 304° |
| 2026-05-06 16:45 | 50.57170 | 5.37865 | 10959 ft | 305 kts | 304° |
| 2026-05-06 16:45 | 50.58326 | 5.34994 | 10078 ft | 310 kts | 304° |
| 2026-05-06 16:45 | 50.59439 | 5.32241 | 9791 ft | 294 kts | 304° |
| 2026-05-06 16:46 | 50.60530 | 5.29551 | 9673 ft | 289 kts | 304° |
| 2026-05-06 16:46 | 50.61612 | 5.26885 | 9539 ft | 289 kts | 304° |
| 2026-05-06 16:46 | 50.62696 | 5.24217 | 9354 ft | 289 kts | 304° |
| 2026-05-06 16:46 | 50.63774 | 5.21559 | 8980 ft | 287 kts | 304° |
| 2026-05-06 16:47 | 50.64808 | 5.18887 | 8594 ft | 285 kts | 296° |
| 2026-05-06 16:47 | 50.65390 | 5.15905 | 8216 ft | 285 kts | 278° |
| 2026-05-06 16:47 | 50.65358 | 5.12837 | 7823 ft | 286 kts | 261° |
| 2026-05-06 16:47 | 50.64726 | 5.09862 | 7427 ft | 287 kts | 246° |
| 2026-05-06 16:48 | 50.63894 | 5.06988 | 7103 ft | 288 kts | 247° |
| 2026-05-06 16:48 | 50.63066 | 5.04122 | 6856 ft | 284 kts | 246° |
| 2026-05-06 16:48 | 50.62232 | 5.01246 | 6392 ft | 286 kts | 246° |
| 2026-05-06 16:48 | 50.61412 | 4.98433 | 5873 ft | 278 kts | 246° |
| 2026-05-06 16:49 | 50.60635 | 4.95774 | 5656 ft | 265 kts | 246° |
| 2026-05-06 16:49 | 50.59884 | 4.93212 | 5449 ft | 252 kts | 246° |
| 2026-05-06 16:49 | 50.59153 | 4.90719 | 5247 ft | 250 kts | 247° |
| 2026-05-06 16:49 | 50.58424 | 4.88232 | 5045 ft | 248 kts | 246° |
| 2026-05-06 16:50 | 50.57703 | 4.85775 | 4841 ft | 247 kts | 246° |
| 2026-05-06 16:50 | 50.56982 | 4.83325 | 4641 ft | 243 kts | 246° |
| 2026-05-06 16:50 | 50.56287 | 4.80958 | 4418 ft | 235 kts | 246° |
| 2026-05-06 16:50 | 50.55835 | 4.79418 | 4290 ft | 234 kts | 246° |
| 2026-05-06 16:51 | 50.54934 | 4.76347 | 4022 ft | 232 kts | 245° |
| 2026-05-06 16:51 | 50.54264 | 4.74048 | 3815 ft | 227 kts | 246° |
| 2026-05-06 16:51 | 50.53623 | 4.71819 | 3613 ft | 221 kts | 246° |
| 2026-05-06 16:51 | 50.53003 | 4.69656 | 3456 ft | 210 kts | 246° |
| 2026-05-06 16:52 | 50.52415 | 4.67603 | 3234 ft | 202 kts | 246° |
| 2026-05-06 16:52 | 50.51854 | 4.65637 | 3066 ft | 199 kts | 246° |
| 2026-05-06 16:52 | 50.51289 | 4.63659 | 3002 ft | 197 kts | 246° |
| 2026-05-06 16:52 | 50.50722 | 4.61682 | 3003 ft | 200 kts | 247° |
| 2026-05-06 16:53 | 50.50147 | 4.59682 | 2781 ft | 199 kts | 246° |
| 2026-05-06 16:53 | 50.49573 | 4.57695 | 2241 ft | 198 kts | 247° |
| 2026-05-06 16:53 | 50.49011 | 4.55762 | 1854 ft | 189 kts | 248° |
| 2026-05-06 16:53 | 50.48479 | 4.53935 | 1592 ft | 175 kts | 248° |
| 2026-05-06 16:54 | 50.47991 | 4.52260 | 1330 ft | 162 kts | 249° |
| 2026-05-06 16:54 | 50.47540 | 4.50695 | 1084 ft | 153 kts | 248° |
| 2026-05-06 16:54 | 50.47119 | 4.49218 | 871 ft | 144 kts | 249° |
| 2026-05-06 16:54 | 50.46693 | 4.47717 | 816 ft | 171 kts | 248° |
| 2026-05-06 16:55 | 50.46175 | 4.45911 | 1494 ft | 188 kts | 249° |
| 2026-05-06 16:55 | 50.45617 | 4.44027 | 2460 ft | 193 kts | 246° |
| 2026-05-06 16:55 | 50.45031 | 4.42074 | 2895 ft | 208 kts | 246° |
| 2026-05-06 16:55 | 50.44393 | 4.39880 | 2983 ft | 228 kts | 246° |
| 2026-05-06 16:56 | 50.43727 | 4.37582 | 2991 ft | 232 kts | 246° |
| 2026-05-06 16:56 | 50.43114 | 4.35250 | 3003 ft | 231 kts | 255° |
| 2026-05-06 16:56 | 50.42601 | 4.32862 | 3006 ft | 231 kts | 248° |
| 2026-05-06 16:56 | 50.42060 | 4.30500 | 2999 ft | 229 kts | 265° |
| 2026-05-06 16:57 | 50.42232 | 4.28105 | 3172 ft | 223 kts | 296° |
| 2026-05-06 16:57 | 50.43177 | 4.26248 | 3398 ft | 218 kts | 331° |
| 2026-05-06 16:57 | 50.44590 | 4.25577 | 3621 ft | 211 kts | 6° |
| 2026-05-06 16:57 | 50.45937 | 4.26307 | 3855 ft | 207 kts | 40° |
| 2026-05-06 16:58 | 50.46581 | 4.27422 | 3956 ft | 208 kts | 57° |
| 2026-05-06 16:58 | 50.47547 | 4.30050 | 4001 ft | 209 kts | 62° |
| 2026-05-06 16:58 | 50.48006 | 4.31422 | 4006 ft | 209 kts | 62° |
| 2026-05-06 16:58 | 50.48667 | 4.33420 | 4006 ft | 208 kts | 62° |
| 2026-05-06 16:59 | 50.49330 | 4.35448 | 4005 ft | 209 kts | 63° |
| 2026-05-06 16:59 | 50.49994 | 4.37482 | 4006 ft | 209 kts | 63° |
| 2026-05-06 16:59 | 50.50820 | 4.39336 | 4007 ft | 208 kts | 41° |
| 2026-05-06 16:59 | 50.52000 | 4.40658 | 4007 ft | 209 kts | 34° |
| 2026-05-06 17:00 | 50.53243 | 4.41871 | 4005 ft | 211 kts | 33° |
| 2026-05-06 17:00 | 50.54477 | 4.43053 | 4006 ft | 210 kts | 33° |
| 2026-05-06 17:00 | 50.55726 | 4.44233 | 4005 ft | 209 kts | 32° |
| 2026-05-06 17:00 | 50.56974 | 4.45409 | 4006 ft | 209 kts | 32° |
| 2026-05-06 17:01 | 50.58170 | 4.46693 | 4003 ft | 207 kts | 48° |
| 2026-05-06 17:01 | 50.58867 | 4.48657 | 4012 ft | 208 kts | 69° |
| 2026-05-06 17:01 | 50.59305 | 4.50790 | 4010 ft | 206 kts | 72° |
| 2026-05-06 17:01 | 50.59716 | 4.52962 | 4007 ft | 208 kts | 72° |
| 2026-05-06 17:02 | 50.60120 | 4.55151 | 4007 ft | 209 kts | 72° |
| 2026-05-06 17:02 | 50.60522 | 4.57368 | 4007 ft | 209 kts | 73° |
| 2026-05-06 17:02 | 50.60923 | 4.59578 | 4006 ft | 210 kts | 72° |
| 2026-05-06 17:02 | 50.61321 | 4.61762 | 4005 ft | 210 kts | 72° |
| 2026-05-06 17:03 | 50.61725 | 4.63969 | 4006 ft | 209 kts | 72° |
| 2026-05-06 17:03 | 50.61936 | 4.66227 | 4003 ft | 211 kts | 97° |
| 2026-05-06 17:03 | 50.61347 | 4.68330 | 3847 ft | 217 kts | 130° |
| 2026-05-06 17:03 | 50.60196 | 4.69876 | 3614 ft | 218 kts | 141° |
| 2026-05-06 17:04 | 50.58956 | 4.71263 | 3387 ft | 219 kts | 142° |
| 2026-05-06 17:04 | 50.57693 | 4.72617 | 3161 ft | 219 kts | 143° |
| 2026-05-06 17:04 | 50.56356 | 4.73747 | 3017 ft | 222 kts | 165° |
| 2026-05-06 17:04 | 50.54820 | 4.73632 | 3009 ft | 226 kts | 201° |
| 2026-05-06 17:05 | 50.53589 | 4.72221 | 3002 ft | 218 kts | 233° |
| 2026-05-06 17:05 | 50.52895 | 4.70186 | 3037 ft | 205 kts | 252° |
| 2026-05-06 17:05 | 50.52425 | 4.68162 | 3013 ft | 190 kts | 251° |
| 2026-05-06 17:05 | 50.51982 | 4.66284 | 2993 ft | 175 kts | 251° |
| 2026-05-06 17:06 | 50.51583 | 4.64603 | 3014 ft | 159 kts | 250° |
| 2026-05-06 17:06 | 50.51148 | 4.63014 | 3008 ft | 157 kts | 247° |
| 2026-05-06 17:06 | 50.50694 | 4.61451 | 2996 ft | 157 kts | 247° |
| 2026-05-06 17:06 | 50.50239 | 4.59893 | 3001 ft | 157 kts | 247° |
| 2026-05-06 17:07 | 50.49782 | 4.58337 | 3009 ft | 156 kts | 246° |
| 2026-05-06 17:07 | 50.49317 | 4.56780 | 2829 ft | 158 kts | 246° |
| 2026-05-06 17:07 | 50.48846 | 4.55195 | 2386 ft | 162 kts | 247° |
| 2026-05-06 17:07 | 50.48358 | 4.53578 | 1959 ft | 164 kts | 247° |
| 2026-05-06 17:08 | 50.47884 | 4.51994 | 1601 ft | 160 kts | 249° |
| 2026-05-06 17:08 | 50.47442 | 4.50417 | 1257 ft | 159 kts | 249° |
| 2026-05-06 17:08 | 50.46987 | 4.48736 | 1117 ft | 189 kts | 249° |
| 2026-05-06 17:08 | 50.46375 | 4.46618 | 1344 ft | 232 kts | 247° |
| 2026-05-06 17:09 | 50.45688 | 4.44278 | 2237 ft | 230 kts | 248° |
| 2026-05-06 17:09 | 50.45027 | 4.42008 | 3260 ft | 229 kts | 246° |
| 2026-05-06 17:09 | 50.44357 | 4.39698 | 3820 ft | 235 kts | 246° |
| 2026-05-06 17:09 | 50.43686 | 4.37392 | 3969 ft | 234 kts | 246° |
| 2026-05-06 17:10 | 50.43119 | 4.35019 | 3998 ft | 232 kts | 264° |
| 2026-05-06 17:10 | 50.43320 | 4.32586 | 4005 ft | 224 kts | 299° |
| 2026-05-06 17:10 | 50.44320 | 4.30795 | 4007 ft | 218 kts | 334° |
| 2026-05-06 17:10 | 50.45749 | 4.30238 | 4008 ft | 211 kts | 8° |
| 2026-05-06 17:11 | 50.47072 | 4.31076 | 4008 ft | 207 kts | 43° |
| 2026-05-06 17:11 | 50.47848 | 4.32947 | 4012 ft | 208 kts | 68° |
| 2026-05-06 17:11 | 50.48434 | 4.35034 | 4009 ft | 209 kts | 63° |
| 2026-05-06 17:11 | 50.49070 | 4.37051 | 4008 ft | 209 kts | 63° |
| 2026-05-06 17:12 | 50.49719 | 4.39085 | 4008 ft | 208 kts | 63° |
| 2026-05-06 17:12 | 50.50367 | 4.41125 | 4006 ft | 208 kts | 63° |
| 2026-05-06 17:12 | 50.51018 | 4.43171 | 4008 ft | 209 kts | 62° |
| 2026-05-06 17:12 | 50.51668 | 4.45219 | 4008 ft | 209 kts | 63° |
| 2026-05-06 17:13 | 50.52312 | 4.47254 | 4008 ft | 208 kts | 63° |
| 2026-05-06 17:13 | 50.52952 | 4.49269 | 4007 ft | 209 kts | 63° |
| 2026-05-06 17:13 | 50.53603 | 4.51312 | 4007 ft | 209 kts | 63° |
| 2026-05-06 17:13 | 50.54255 | 4.53359 | 4007 ft | 208 kts | 63° |
| 2026-05-06 17:14 | 50.54905 | 4.55393 | 4006 ft | 208 kts | 63° |
| 2026-05-06 17:14 | 50.55558 | 4.57436 | 4008 ft | 209 kts | 63° |
| 2026-05-06 17:14 | 50.56202 | 4.59459 | 4005 ft | 208 kts | 63° |
| 2026-05-06 17:14 | 50.56848 | 4.61500 | 3882 ft | 207 kts | 63° |
| 2026-05-06 17:15 | 50.57401 | 4.63587 | 3549 ft | 207 kts | 80° |
| 2026-05-06 17:15 | 50.57239 | 4.65829 | 3232 ft | 211 kts | 111° |
| 2026-05-06 17:15 | 50.56372 | 4.67630 | 3030 ft | 208 kts | 141° |
| 2026-05-06 17:15 | 50.55135 | 4.68497 | 3005 ft | 185 kts | 168° |
| 2026-05-06 17:16 | 50.53928 | 4.68436 | 2987 ft | 165 kts | 193° |
| 2026-05-06 17:16 | 50.52913 | 4.67711 | 2996 ft | 157 kts | 215° |
| 2026-05-06 17:16 | 50.52160 | 4.66507 | 3015 ft | 154 kts | 238° |
| 2026-05-06 17:16 | 50.51689 | 4.65029 | 2993 ft | 153 kts | 248° |
| 2026-05-06 17:17 | 50.51252 | 4.63511 | 2866 ft | 151 kts | 247° |
| 2026-05-06 17:17 | 50.50817 | 4.62001 | 2688 ft | 152 kts | 248° |
| 2026-05-06 17:17 | 50.50379 | 4.60482 | 2488 ft | 152 kts | 248° |
| 2026-05-06 17:17 | 50.49943 | 4.58970 | 2290 ft | 152 kts | 248° |
| 2026-05-06 17:18 | 50.49508 | 4.57463 | 2079 ft | 150 kts | 248° |
| 2026-05-06 17:18 | 50.49077 | 4.55965 | 1898 ft | 150 kts | 249° |
| 2026-05-06 17:18 | 50.48638 | 4.54486 | 1705 ft | 148 kts | 248° |
| 2026-05-06 17:18 | 50.48211 | 4.53037 | 1463 ft | 147 kts | 249° |
| 2026-05-06 17:19 | 50.47803 | 4.51584 | 1267 ft | 143 kts | 251° |
| 2026-05-06 17:19 | 50.47396 | 4.50164 | 1053 ft | 141 kts | 249° |
| 2026-05-06 17:19 | 50.46990 | 4.48767 | 878 ft | 139 kts | 248° |
| 2026-05-06 17:19 | 50.46598 | 4.47416 | 677 ft | 137 kts | 249° |
| 2026-05-06 17:20 | 50.46221 | 4.46086 | 592 ft | 116 kts | 245° |
| 2026-05-06 17:20 | 50.45962 | 4.45204 | 590 ft | 66 kts | 246° |
| 2026-05-06 17:20 | 50.45874 | 4.44869 | 596 ft | 17 kts | 277° |
| 2026-05-06 17:20 | 50.45947 | 4.44777 | 596 ft | 13 kts | 336° |
| 2026-05-06 17:21 | 50.46022 | 4.44807 | 597 ft | 10 kts | 53° |
| 2026-05-06 17:21 | 50.46051 | 4.44894 | 597 ft | 8 kts | 65° |
| 2026-05-06 17:21 | 50.46083 | 4.45003 | 596 ft | 14 kts | 66° |
| 2026-05-06 17:21 | 50.46128 | 4.45157 | 598 ft | 17 kts | 65° |
| 2026-05-06 17:22 | 50.46180 | 4.45336 | 599 ft | 20 kts | 65° |
| 2026-05-06 17:22 | 50.46239 | 4.45540 | 600 ft | 21 kts | 65° |
| 2026-05-06 17:22 | 50.46306 | 4.45768 | 597 ft | 25 kts | 65° |
| 2026-05-06 17:22 | 50.46355 | 4.45939 | 597 ft | 17 kts | 65° |
| 2026-05-06 17:23 | 50.46412 | 4.46133 | 591 ft | 22 kts | 65° |
| 2026-05-06 17:23 | 50.46480 | 4.46366 | 589 ft | 25 kts | 66° |
| 2026-05-06 17:23 | 50.46535 | 4.46558 | 590 ft | 15 kts | 66° |
| 2026-05-06 17:23 | 50.46579 | 4.46706 | 591 ft | 15 kts | 65° |
| 2026-05-06 17:24 | 50.46620 | 4.46796 | 592 ft | 8 kts | 25° |
| 2026-05-06 17:24 | 50.46669 | 4.46799 | 590 ft | 5 kts | 17° |
| 2026-05-06 17:24 | 50.46679 | 4.46811 | 590 ft | 1 kts | 46° |
| 2026-05-06 17:24 | 50.46687 | 4.46830 | 590 ft | 4 kts | 57° |
| 2026-05-06 17:25 | 50.46700 | 4.46872 | 590 ft | 6 kts | 65° |
| 2026-05-06 17:25 | 50.46732 | 4.46919 | 588 ft | 7 kts | 2° |
| 2026-05-06 17:25 | 50.46782 | 4.46892 | 585 ft | 7 kts | 335° |
| 2026-05-06 17:25 | 50.46804 | 4.46877 | 585 ft | 0 kts | 335° |
| 2026-05-06 17:26 | 50.46807 | 4.46874 | 585 ft | 0 kts | 335° |